sensor_id;sensor_type;location;lat;lon;timestamp;P1;durP1;ratioP1;P2;durP2;ratioP2
13584;SDS011;6863;48.402;9.994;2022-12-29T00:02:12;4.10;;;3.70;;
13584;SDS011;6863;48.402;9.994;2022-12-29T00:04:38;3.73;;;3.43;;
13584;SDS011;6863;48.402;9.994;2022-12-29T00:07:04;4.50;;;3.87;;
13584;SDS011;6863;48.402;9.994;2022-12-29T00:09:30;3.80;;;3.17;;
13584;SDS011;6863;48.402;9.994;2022-12-29T00:11:56;3.43;;;3.00;;
13584;SDS011;6863;48.402;9.994;2022-12-29T00:14:23;3.50;;;3.10;;
13584;SDS011;6863;48.402;9.994;2022-12-29T00:17:07;4.63;;;4.10;;
13584;SDS011;6863;48.402;9.994;2022-12-29T00:19:32;3.20;;;3.00;;
13584;SDS011;6863;48.402;9.994;2022-12-29T00:22:16;3.60;;;3.30;;
13584;SDS011;6863;48.402;9.994;2022-12-29T00:25:01;3.50;;;3.20;;
13584;SDS011;6863;48.402;9.994;2022-12-29T00:27:46;3.60;;;3.30;;
13584;SDS011;6863;48.402;9.994;2022-12-29T00:30:30;4.70;;;3.67;;
13584;SDS011;6863;48.402;9.994;2022-12-29T00:33:15;4.50;;;3.80;;
13584;SDS011;6863;48.402;9.994;2022-12-29T00:36:02;3.67;;;3.37;;
13584;SDS011;6863;48.402;9.994;2022-12-29T00:38:33;4.40;;;3.93;;
13584;SDS011;6863;48.402;9.994;2022-12-29T00:41:20;5.43;;;4.30;;
13584;SDS011;6863;48.402;9.994;2022-12-29T00:44:05;3.73;;;3.43;;
13584;SDS011;6863;48.402;9.994;2022-12-29T00:46:35;4.07;;;3.53;;
13584;SDS011;6863;48.402;9.994;2022-12-29T00:49:02;4.33;;;3.93;;
13584;SDS011;6863;48.402;9.994;2022-12-29T00:51:47;4.30;;;3.90;;
13584;SDS011;6863;48.402;9.994;2022-12-29T00:54:13;5.40;;;4.20;;
13584;SDS011;6863;48.402;9.994;2022-12-29T00:56:40;4.60;;;4.20;;
13584;SDS011;6863;48.402;9.994;2022-12-29T00:59:06;4.37;;;3.97;;
13584;SDS011;6863;48.402;9.994;2022-12-29T01:01:34;4.30;;;3.90;;
13584;SDS011;6863;48.402;9.994;2022-12-29T01:04:02;5.17;;;4.27;;
13584;SDS011;6863;48.402;9.994;2022-12-29T01:06:29;4.37;;;3.97;;
13584;SDS011;6863;48.402;9.994;2022-12-29T01:08:55;4.67;;;3.93;;
13584;SDS011;6863;48.402;9.994;2022-12-29T01:11:40;4.03;;;3.27;;
13584;SDS011;6863;48.402;9.994;2022-12-29T01:14:06;4.23;;;3.80;;
13584;SDS011;6863;48.402;9.994;2022-12-29T01:16:32;3.57;;;3.27;;
13584;SDS011;6863;48.402;9.994;2022-12-29T01:18:58;5.10;;;4.10;;
13584;SDS011;6863;48.402;9.994;2022-12-29T01:21:24;4.17;;;3.60;;
13584;SDS011;6863;48.402;9.994;2022-12-29T01:23:50;3.67;;;3.37;;
13584;SDS011;6863;48.402;9.994;2022-12-29T01:26:16;4.00;;;3.47;;
13584;SDS011;6863;48.402;9.994;2022-12-29T01:28:42;4.27;;;3.53;;
13584;SDS011;6863;48.402;9.994;2022-12-29T01:31:09;4.27;;;3.43;;
13584;SDS011;6863;48.402;9.994;2022-12-29T01:33:35;3.87;;;3.40;;
13584;SDS011;6863;48.402;9.994;2022-12-29T01:36:02;4.27;;;3.10;;
13584;SDS011;6863;48.402;9.994;2022-12-29T01:38:32;3.30;;;2.97;;
13584;SDS011;6863;48.402;9.994;2022-12-29T01:40:59;3.67;;;3.23;;
13584;SDS011;6863;48.402;9.994;2022-12-29T01:46:17;3.40;;;3.10;;
13584;SDS011;6863;48.402;9.994;2022-12-29T01:48:45;4.17;;;2.87;;
13584;SDS011;6863;48.402;9.994;2022-12-29T01:51:16;3.53;;;3.20;;
13584;SDS011;6863;48.402;9.994;2022-12-29T01:53:42;3.97;;;3.50;;
13584;SDS011;6863;48.402;9.994;2022-12-29T01:56:09;3.67;;;3.27;;
13584;SDS011;6863;48.402;9.994;2022-12-29T01:58:40;5.60;;;3.77;;
13584;SDS011;6863;48.402;9.994;2022-12-29T02:01:09;3.83;;;3.53;;
13584;SDS011;6863;48.402;9.994;2022-12-29T02:03:35;4.43;;;3.97;;
13584;SDS011;6863;48.402;9.994;2022-12-29T02:08:31;3.53;;;3.23;;
13584;SDS011;6863;48.402;9.994;2022-12-29T02:10:56;3.73;;;3.30;;
13584;SDS011;6863;48.402;9.994;2022-12-29T02:13:25;4.30;;;3.70;;
13584;SDS011;6863;48.402;9.994;2022-12-29T02:16:07;4.77;;;3.60;;
13584;SDS011;6863;48.402;9.994;2022-12-29T02:21:45;3.50;;;3.20;;
13584;SDS011;6863;48.402;9.994;2022-12-29T02:24:41;3.47;;;3.07;;
13584;SDS011;6863;48.402;9.994;2022-12-29T02:35:59;3.43;;;3.13;;
13584;SDS011;6863;48.402;9.994;2022-12-29T02:39:15;3.30;;;3.00;;
13584;SDS011;6863;48.402;9.994;2022-12-29T02:42:12;3.60;;;3.30;;
13584;SDS011;6863;48.402;9.994;2022-12-29T02:44:43;3.43;;;3.13;;
13584;SDS011;6863;48.402;9.994;2022-12-29T02:49:54;3.53;;;3.27;;
13584;SDS011;6863;48.402;9.994;2022-12-29T02:52:27;4.23;;;3.33;;
13584;SDS011;6863;48.402;9.994;2022-12-29T02:55:23;5.00;;;3.67;;
13584;SDS011;6863;48.402;9.994;2022-12-29T02:57:49;5.43;;;4.40;;
13584;SDS011;6863;48.402;9.994;2022-12-29T03:00:56;4.50;;;3.63;;
13584;SDS011;6863;48.402;9.994;2022-12-29T03:03:45;3.83;;;2.97;;
13584;SDS011;6863;48.402;9.994;2022-12-29T03:14:49;3.27;;;2.97;;
13584;SDS011;6863;48.402;9.994;2022-12-29T03:20:14;5.63;;;3.00;;
13584;SDS011;6863;48.402;9.994;2022-12-29T03:22:46;3.47;;;3.17;;
13584;SDS011;6863;48.402;9.994;2022-12-29T03:25:19;3.93;;;3.50;;
13584;SDS011;6863;48.402;9.994;2022-12-29T03:27:56;3.97;;;3.10;;
13584;SDS011;6863;48.402;9.994;2022-12-29T03:30:25;3.83;;;3.53;;
13584;SDS011;6863;48.402;9.994;2022-12-29T03:32:54;3.63;;;3.33;;
13584;SDS011;6863;48.402;9.994;2022-12-29T03:35:22;3.70;;;3.07;;
13584;SDS011;6863;48.402;9.994;2022-12-29T03:37:53;2.60;;;2.40;;
13584;SDS011;6863;48.402;9.994;2022-12-29T03:40:25;3.37;;;2.87;;
13584;SDS011;6863;48.402;9.994;2022-12-29T03:42:52;2.93;;;2.63;;
13584;SDS011;6863;48.402;9.994;2022-12-29T03:45:18;4.13;;;2.90;;
13584;SDS011;6863;48.402;9.994;2022-12-29T03:47:44;3.23;;;2.93;;
13584;SDS011;6863;48.402;9.994;2022-12-29T03:50:11;3.33;;;2.87;;
13584;SDS011;6863;48.402;9.994;2022-12-29T03:52:38;2.87;;;2.63;;
13584;SDS011;6863;48.402;9.994;2022-12-29T03:55:03;3.93;;;3.10;;
13584;SDS011;6863;48.402;9.994;2022-12-29T03:57:29;3.97;;;3.57;;
13584;SDS011;6863;48.402;9.994;2022-12-29T03:59:55;6.17;;;4.93;;
13584;SDS011;6863;48.402;9.994;2022-12-29T04:02:20;6.03;;;4.90;;
13584;SDS011;6863;48.402;9.994;2022-12-29T04:04:46;6.77;;;5.30;;
13584;SDS011;6863;48.402;9.994;2022-12-29T04:07:12;3.00;;;2.70;;
13584;SDS011;6863;48.402;9.994;2022-12-29T04:09:37;2.87;;;2.37;;
13584;SDS011;6863;48.402;9.994;2022-12-29T04:12:03;3.50;;;2.37;;
13584;SDS011;6863;48.402;9.994;2022-12-29T04:14:28;2.70;;;2.50;;
13584;SDS011;6863;48.402;9.994;2022-12-29T04:16:54;3.70;;;3.40;;
13584;SDS011;6863;48.402;9.994;2022-12-29T04:19:19;2.80;;;2.60;;
13584;SDS011;6863;48.402;9.994;2022-12-29T04:21:45;2.70;;;2.30;;
13584;SDS011;6863;48.402;9.994;2022-12-29T04:24:11;3.87;;;3.30;;
13584;SDS011;6863;48.402;9.994;2022-12-29T04:26:37;3.37;;;2.77;;
13584;SDS011;6863;48.402;9.994;2022-12-29T04:29:03;4.87;;;3.63;;
13584;SDS011;6863;48.402;9.994;2022-12-29T04:31:29;9.73;;;6.27;;
13584;SDS011;6863;48.402;9.994;2022-12-29T04:33:54;4.67;;;4.07;;
13584;SDS011;6863;48.402;9.994;2022-12-29T04:36:22;2.93;;;2.73;;
13584;SDS011;6863;48.402;9.994;2022-12-29T04:38:48;3.60;;;2.87;;
13584;SDS011;6863;48.402;9.994;2022-12-29T04:41:13;2.27;;;2.07;;
13584;SDS011;6863;48.402;9.994;2022-12-29T04:43:39;3.13;;;2.40;;
13584;SDS011;6863;48.402;9.994;2022-12-29T04:46:05;1.70;;;1.60;;
13584;SDS011;6863;48.402;9.994;2022-12-29T04:48:30;2.73;;;2.53;;
13584;SDS011;6863;48.402;9.994;2022-12-29T04:50:56;2.67;;;2.37;;
13584;SDS011;6863;48.402;9.994;2022-12-29T04:53:21;2.47;;;2.27;;
13584;SDS011;6863;48.402;9.994;2022-12-29T04:55:51;2.57;;;2.37;;
13584;SDS011;6863;48.402;9.994;2022-12-29T04:58:17;3.67;;;2.20;;
13584;SDS011;6863;48.402;9.994;2022-12-29T05:00:43;1.77;;;1.67;;
13584;SDS011;6863;48.402;9.994;2022-12-29T05:03:09;2.30;;;2.10;;
13584;SDS011;6863;48.402;9.994;2022-12-29T05:05:35;2.77;;;2.07;;
13584;SDS011;6863;48.402;9.994;2022-12-29T05:08:00;2.20;;;2.00;;
13584;SDS011;6863;48.402;9.994;2022-12-29T05:10:26;2.20;;;2.00;;
13584;SDS011;6863;48.402;9.994;2022-12-29T05:12:52;2.27;;;2.07;;
13584;SDS011;6863;48.402;9.994;2022-12-29T05:15:17;2.17;;;2.03;;
13584;SDS011;6863;48.402;9.994;2022-12-29T05:17:43;2.00;;;1.90;;
13584;SDS011;6863;48.402;9.994;2022-12-29T05:20:09;2.33;;;2.13;;
13584;SDS011;6863;48.402;9.994;2022-12-29T05:22:35;2.13;;;1.90;;
13584;SDS011;6863;48.402;9.994;2022-12-29T05:25:01;2.23;;;1.90;;
13584;SDS011;6863;48.402;9.994;2022-12-29T05:27:26;2.40;;;2.20;;
13584;SDS011;6863;48.402;9.994;2022-12-29T05:29:52;2.67;;;2.20;;
13584;SDS011;6863;48.402;9.994;2022-12-29T05:32:18;2.53;;;2.33;;
13584;SDS011;6863;48.402;9.994;2022-12-29T05:34:43;3.53;;;3.10;;
13584;SDS011;6863;48.402;9.994;2022-12-29T05:37:09;4.47;;;3.17;;
13584;SDS011;6863;48.402;9.994;2022-12-29T05:39:35;3.60;;;3.07;;
13584;SDS011;6863;48.402;9.994;2022-12-29T05:42:00;3.83;;;3.17;;
13584;SDS011;6863;48.402;9.994;2022-12-29T05:44:26;3.27;;;2.93;;
13584;SDS011;6863;48.402;9.994;2022-12-29T05:46:51;3.00;;;2.30;;
13584;SDS011;6863;48.402;9.994;2022-12-29T05:49:17;3.00;;;2.80;;
13584;SDS011;6863;48.402;9.994;2022-12-29T05:51:43;3.57;;;2.60;;
13584;SDS011;6863;48.402;9.994;2022-12-29T05:54:08;2.50;;;2.30;;
13584;SDS011;6863;48.402;9.994;2022-12-29T05:56:34;4.17;;;3.10;;
13584;SDS011;6863;48.402;9.994;2022-12-29T05:59:00;4.63;;;3.67;;
13584;SDS011;6863;48.402;9.994;2022-12-29T06:01:25;6.77;;;4.10;;
13584;SDS011;6863;48.402;9.994;2022-12-29T06:03:51;3.63;;;3.33;;
13584;SDS011;6863;48.402;9.994;2022-12-29T06:06:16;2.13;;;2.03;;
13584;SDS011;6863;48.402;9.994;2022-12-29T06:08:42;2.00;;;1.87;;
13584;SDS011;6863;48.402;9.994;2022-12-29T06:11:09;2.77;;;2.40;;
13584;SDS011;6863;48.402;9.994;2022-12-29T06:13:35;3.50;;;2.90;;
13584;SDS011;6863;48.402;9.994;2022-12-29T06:16:01;3.67;;;3.30;;
13584;SDS011;6863;48.402;9.994;2022-12-29T06:18:27;2.70;;;2.50;;
13584;SDS011;6863;48.402;9.994;2022-12-29T06:20:59;2.67;;;2.47;;
13584;SDS011;6863;48.402;9.994;2022-12-29T06:23:26;2.50;;;2.30;;
13584;SDS011;6863;48.402;9.994;2022-12-29T06:25:51;2.60;;;2.40;;
13584;SDS011;6863;48.402;9.994;2022-12-29T06:28:17;3.33;;;2.73;;
13584;SDS011;6863;48.402;9.994;2022-12-29T06:30:43;2.33;;;2.13;;
13584;SDS011;6863;48.402;9.994;2022-12-29T06:33:10;2.90;;;2.60;;
13584;SDS011;6863;48.402;9.994;2022-12-29T06:35:37;2.87;;;2.67;;
13584;SDS011;6863;48.402;9.994;2022-12-29T06:38:02;3.13;;;2.87;;
13584;SDS011;6863;48.402;9.994;2022-12-29T06:40:28;5.67;;;3.93;;
13584;SDS011;6863;48.402;9.994;2022-12-29T06:42:54;6.80;;;4.50;;
13584;SDS011;6863;48.402;9.994;2022-12-29T06:45:19;4.27;;;3.33;;
13584;SDS011;6863;48.402;9.994;2022-12-29T06:47:45;4.47;;;3.33;;
13584;SDS011;6863;48.402;9.994;2022-12-29T06:50:10;3.23;;;2.60;;
13584;SDS011;6863;48.402;9.994;2022-12-29T06:52:36;2.50;;;2.13;;
13584;SDS011;6863;48.402;9.994;2022-12-29T06:55:02;2.60;;;2.40;;
13584;SDS011;6863;48.402;9.994;2022-12-29T06:57:28;3.60;;;2.30;;
13584;SDS011;6863;48.402;9.994;2022-12-29T06:59:53;2.70;;;2.50;;
13584;SDS011;6863;48.402;9.994;2022-12-29T07:02:20;2.83;;;2.63;;
13584;SDS011;6863;48.402;9.994;2022-12-29T07:04:46;2.73;;;2.53;;
13584;SDS011;6863;48.402;9.994;2022-12-29T07:07:12;2.37;;;2.17;;
13584;SDS011;6863;48.402;9.994;2022-12-29T07:09:37;2.83;;;2.63;;
13584;SDS011;6863;48.402;9.994;2022-12-29T07:12:03;2.90;;;2.47;;
13584;SDS011;6863;48.402;9.994;2022-12-29T07:14:29;3.13;;;2.67;;
13584;SDS011;6863;48.402;9.994;2022-12-29T07:16:54;3.43;;;2.50;;
13584;SDS011;6863;48.402;9.994;2022-12-29T07:19:20;3.97;;;2.57;;
13584;SDS011;6863;48.402;9.994;2022-12-29T07:21:46;3.23;;;2.70;;
13584;SDS011;6863;48.402;9.994;2022-12-29T07:24:11;3.50;;;2.73;;
13584;SDS011;6863;48.402;9.994;2022-12-29T07:26:37;5.70;;;2.80;;
13584;SDS011;6863;48.402;9.994;2022-12-29T07:29:03;2.73;;;2.50;;
13584;SDS011;6863;48.402;9.994;2022-12-29T07:31:29;4.87;;;2.43;;
13584;SDS011;6863;48.402;9.994;2022-12-29T07:33:54;3.43;;;2.60;;
13584;SDS011;6863;48.402;9.994;2022-12-29T07:36:20;2.87;;;2.60;;
13584;SDS011;6863;48.402;9.994;2022-12-29T07:38:45;3.90;;;3.00;;
13584;SDS011;6863;48.402;9.994;2022-12-29T07:41:11;3.13;;;2.67;;
13584;SDS011;6863;48.402;9.994;2022-12-29T07:43:37;3.43;;;2.40;;
13584;SDS011;6863;48.402;9.994;2022-12-29T07:46:02;3.93;;;2.83;;
13584;SDS011;6863;48.402;9.994;2022-12-29T07:48:28;3.80;;;3.20;;
13584;SDS011;6863;48.402;9.994;2022-12-29T07:50:53;3.30;;;3.00;;
13584;SDS011;6863;48.402;9.994;2022-12-29T07:53:19;3.77;;;2.63;;
13584;SDS011;6863;48.402;9.994;2022-12-29T07:55:45;4.27;;;2.70;;
13584;SDS011;6863;48.402;9.994;2022-12-29T07:58:10;3.23;;;2.80;;
13584;SDS011;6863;48.402;9.994;2022-12-29T08:00:36;2.63;;;2.43;;
13584;SDS011;6863;48.402;9.994;2022-12-29T08:03:03;5.10;;;3.40;;
13584;SDS011;6863;48.402;9.994;2022-12-29T08:05:29;4.30;;;3.50;;
13584;SDS011;6863;48.402;9.994;2022-12-29T08:07:56;3.20;;;2.90;;
13584;SDS011;6863;48.402;9.994;2022-12-29T08:10:22;3.57;;;3.27;;
13584;SDS011;6863;48.402;9.994;2022-12-29T08:12:47;3.33;;;2.80;;
13584;SDS011;6863;48.402;9.994;2022-12-29T08:15:13;3.77;;;3.07;;
13584;SDS011;6863;48.402;9.994;2022-12-29T08:17:38;4.33;;;3.20;;
13584;SDS011;6863;48.402;9.994;2022-12-29T08:20:04;3.20;;;2.90;;
13584;SDS011;6863;48.402;9.994;2022-12-29T08:22:30;3.20;;;3.00;;
13584;SDS011;6863;48.402;9.994;2022-12-29T08:24:56;4.57;;;3.20;;
13584;SDS011;6863;48.402;9.994;2022-12-29T08:27:21;3.40;;;3.10;;
13584;SDS011;6863;48.402;9.994;2022-12-29T08:29:47;3.13;;;2.93;;
13584;SDS011;6863;48.402;9.994;2022-12-29T08:32:13;3.20;;;2.90;;
13584;SDS011;6863;48.402;9.994;2022-12-29T08:34:39;4.37;;;3.70;;
13584;SDS011;6863;48.402;9.994;2022-12-29T08:37:04;4.47;;;3.23;;
13584;SDS011;6863;48.402;9.994;2022-12-29T08:39:30;7.00;;;3.60;;
13584;SDS011;6863;48.402;9.994;2022-12-29T08:41:56;4.17;;;3.10;;
13584;SDS011;6863;48.402;9.994;2022-12-29T08:44:21;3.60;;;3.30;;
13584;SDS011;6863;48.402;9.994;2022-12-29T08:46:47;3.60;;;3.13;;
13584;SDS011;6863;48.402;9.994;2022-12-29T08:49:13;4.00;;;3.37;;
13584;SDS011;6863;48.402;9.994;2022-12-29T08:51:41;4.50;;;4.10;;
13584;SDS011;6863;48.402;9.994;2022-12-29T08:54:10;4.43;;;4.03;;
13584;SDS011;6863;48.402;9.994;2022-12-29T08:56:41;4.23;;;3.60;;
13584;SDS011;6863;48.402;9.994;2022-12-29T08:59:31;5.03;;;3.90;;
13584;SDS011;6863;48.402;9.994;2022-12-29T09:01:57;4.77;;;3.90;;
13584;SDS011;6863;48.402;9.994;2022-12-29T09:04:22;4.17;;;3.60;;
13584;SDS011;6863;48.402;9.994;2022-12-29T09:06:50;5.63;;;4.17;;
13584;SDS011;6863;48.402;9.994;2022-12-29T09:09:19;3.93;;;2.83;;
13584;SDS011;6863;48.402;9.994;2022-12-29T09:11:45;3.90;;;3.03;;
13584;SDS011;6863;48.402;9.994;2022-12-29T09:14:10;4.07;;;3.10;;
13584;SDS011;6863;48.402;9.994;2022-12-29T09:16:36;4.50;;;3.70;;
13584;SDS011;6863;48.402;9.994;2022-12-29T09:19:02;4.17;;;3.77;;
13584;SDS011;6863;48.402;9.994;2022-12-29T09:21:28;5.13;;;3.60;;
13584;SDS011;6863;48.402;9.994;2022-12-29T09:23:54;3.57;;;3.27;;
13584;SDS011;6863;48.402;9.994;2022-12-29T09:26:19;4.63;;;3.13;;
13584;SDS011;6863;48.402;9.994;2022-12-29T09:28:45;4.07;;;3.70;;
13584;SDS011;6863;48.402;9.994;2022-12-29T09:31:12;3.43;;;3.13;;
13584;SDS011;6863;48.402;9.994;2022-12-29T09:33:38;5.10;;;3.60;;
13584;SDS011;6863;48.402;9.994;2022-12-29T09:36:10;4.60;;;4.20;;
13584;SDS011;6863;48.402;9.994;2022-12-29T09:38:35;4.70;;;4.30;;
13584;SDS011;6863;48.402;9.994;2022-12-29T09:41:04;7.90;;;5.33;;
13584;SDS011;6863;48.402;9.994;2022-12-29T09:51:49;4.57;;;3.67;;
13584;SDS011;6863;48.402;9.994;2022-12-29T09:54:38;4.37;;;3.20;;
13584;SDS011;6863;48.402;9.994;2022-12-29T09:57:21;7.77;;;6.17;;
13584;SDS011;6863;48.402;9.994;2022-12-29T09:59:52;4.80;;;4.37;;
13584;SDS011;6863;48.402;9.994;2022-12-29T10:04:55;3.67;;;3.37;;
13584;SDS011;6863;48.402;9.994;2022-12-29T10:07:38;3.30;;;2.97;;
13584;SDS011;6863;48.402;9.994;2022-12-29T10:13:07;4.03;;;3.40;;
13584;SDS011;6863;48.402;9.994;2022-12-29T10:15:59;5.63;;;3.40;;
13584;SDS011;6863;48.402;9.994;2022-12-29T10:18:58;3.73;;;3.27;;
13584;SDS011;6863;48.402;9.994;2022-12-29T10:24:17;4.30;;;3.20;;
13584;SDS011;6863;48.402;9.994;2022-12-29T10:26:46;5.03;;;3.63;;
13584;SDS011;6863;48.402;9.994;2022-12-29T10:31:43;5.20;;;3.77;;
13584;SDS011;6863;48.402;9.994;2022-12-29T10:36:54;3.77;;;3.33;;
13584;SDS011;6863;48.402;9.994;2022-12-29T10:42:27;4.23;;;3.30;;
13584;SDS011;6863;48.402;9.994;2022-12-29T10:44:53;3.43;;;3.13;;
13584;SDS011;6863;48.402;9.994;2022-12-29T10:47:29;5.07;;;3.90;;
13584;SDS011;6863;48.402;9.994;2022-12-29T10:50:03;4.57;;;3.60;;
13584;SDS011;6863;48.402;9.994;2022-12-29T10:52:30;4.37;;;3.90;;
13584;SDS011;6863;48.402;9.994;2022-12-29T10:55:00;6.57;;;4.70;;
13584;SDS011;6863;48.402;9.994;2022-12-29T10:57:33;4.77;;;3.07;;
13584;SDS011;6863;48.402;9.994;2022-12-29T11:00:23;3.40;;;3.10;;
13584;SDS011;6863;48.402;9.994;2022-12-29T11:03:04;3.70;;;3.40;;
13584;SDS011;6863;48.402;9.994;2022-12-29T11:08:33;6.63;;;4.10;;
13584;SDS011;6863;48.402;9.994;2022-12-29T11:11:03;7.63;;;4.30;;
13584;SDS011;6863;48.402;9.994;2022-12-29T11:13:34;6.07;;;3.40;;
13584;SDS011;6863;48.402;9.994;2022-12-29T11:16:13;4.60;;;3.50;;
13584;SDS011;6863;48.402;9.994;2022-12-29T11:18:39;3.87;;;2.80;;
13584;SDS011;6863;48.402;9.994;2022-12-29T11:21:52;3.43;;;2.70;;
13584;SDS011;6863;48.402;9.994;2022-12-29T11:24:05;4.27;;;2.53;;
13584;SDS011;6863;48.402;9.994;2022-12-29T11:26:43;3.50;;;3.20;;
13584;SDS011;6863;48.402;9.994;2022-12-29T11:34:18;4.30;;;2.90;;
13584;SDS011;6863;48.402;9.994;2022-12-29T11:36:59;3.87;;;2.60;;
13584;SDS011;6863;48.402;9.994;2022-12-29T11:40:19;4.67;;;2.90;;
13584;SDS011;6863;48.402;9.994;2022-12-29T11:42:46;3.47;;;3.13;;
13584;SDS011;6863;48.402;9.994;2022-12-29T11:45:16;3.23;;;2.83;;
13584;SDS011;6863;48.402;9.994;2022-12-29T11:47:52;5.77;;;3.77;;
13584;SDS011;6863;48.402;9.994;2022-12-29T11:50:22;4.63;;;3.10;;
13584;SDS011;6863;48.402;9.994;2022-12-29T11:52:56;3.73;;;2.83;;
13584;SDS011;6863;48.402;9.994;2022-12-29T11:55:25;3.73;;;3.40;;
13584;SDS011;6863;48.402;9.994;2022-12-29T11:57:51;4.57;;;3.10;;
13584;SDS011;6863;48.402;9.994;2022-12-29T12:00:23;6.20;;;3.33;;
13584;SDS011;6863;48.402;9.994;2022-12-29T12:05:24;4.40;;;3.30;;
13584;SDS011;6863;48.402;9.994;2022-12-29T12:08:37;4.53;;;2.63;;
13584;SDS011;6863;48.402;9.994;2022-12-29T12:13:43;3.70;;;2.57;;
13584;SDS011;6863;48.402;9.994;2022-12-29T12:16:22;2.60;;;2.40;;
13584;SDS011;6863;48.402;9.994;2022-12-29T12:18:53;3.00;;;2.70;;
13584;SDS011;6863;48.402;9.994;2022-12-29T12:21:40;4.00;;;2.53;;
13584;SDS011;6863;48.402;9.994;2022-12-29T12:27:22;3.10;;;2.60;;
13584;SDS011;6863;48.402;9.994;2022-12-29T12:30:16;3.47;;;2.90;;
13584;SDS011;6863;48.402;9.994;2022-12-29T12:33:03;5.07;;;3.30;;
13584;SDS011;6863;48.402;9.994;2022-12-29T12:41:44;4.60;;;3.70;;
13584;SDS011;6863;48.402;9.994;2022-12-29T12:53:15;6.37;;;3.30;;
13584;SDS011;6863;48.402;9.994;2022-12-29T13:17:38;3.27;;;2.53;;
13584;SDS011;6863;48.402;9.994;2022-12-29T13:20:19;5.23;;;2.73;;
13584;SDS011;6863;48.402;9.994;2022-12-29T13:22:50;3.13;;;2.93;;
13584;SDS011;6863;48.402;9.994;2022-12-29T13:30:54;3.10;;;2.40;;
13584;SDS011;6863;48.402;9.994;2022-12-29T13:33:38;3.73;;;2.83;;
13584;SDS011;6863;48.402;9.994;2022-12-29T13:36:24;3.23;;;2.83;;
13584;SDS011;6863;48.402;9.994;2022-12-29T13:41:53;6.30;;;3.10;;
13584;SDS011;6863;48.402;9.994;2022-12-29T13:44:24;6.77;;;3.60;;
13584;SDS011;6863;48.402;9.994;2022-12-29T13:46:53;4.20;;;2.73;;
13584;SDS011;6863;48.402;9.994;2022-12-29T13:49:22;3.00;;;2.70;;
13584;SDS011;6863;48.402;9.994;2022-12-29T13:51:55;4.30;;;2.47;;
13584;SDS011;6863;48.402;9.994;2022-12-29T13:57:37;2.97;;;2.40;;
13584;SDS011;6863;48.402;9.994;2022-12-29T14:00:15;2.87;;;2.60;;
13584;SDS011;6863;48.402;9.994;2022-12-29T14:07:46;3.23;;;2.63;;
13584;SDS011;6863;48.402;9.994;2022-12-29T14:10:32;3.00;;;2.70;;
13584;SDS011;6863;48.402;9.994;2022-12-29T14:13:16;3.50;;;2.73;;
13584;SDS011;6863;48.402;9.994;2022-12-29T14:15:50;3.87;;;3.20;;
13584;SDS011;6863;48.402;9.994;2022-12-29T14:18:27;3.50;;;2.50;;
13584;SDS011;6863;48.402;9.994;2022-12-29T14:23:47;2.50;;;2.30;;
13584;SDS011;6863;48.402;9.994;2022-12-29T14:28:53;6.87;;;3.60;;
13584;SDS011;6863;48.402;9.994;2022-12-29T14:34:27;3.13;;;2.67;;
13584;SDS011;6863;48.402;9.994;2022-12-29T14:36:37;4.07;;;3.10;;
13584;SDS011;6863;48.402;9.994;2022-12-29T14:42:27;3.03;;;2.30;;
13584;SDS011;6863;48.402;9.994;2022-12-29T14:44:51;3.07;;;2.30;;
13584;SDS011;6863;48.402;9.994;2022-12-29T14:47:48;4.13;;;2.50;;
13584;SDS011;6863;48.402;9.994;2022-12-29T14:50:18;4.03;;;3.10;;
13584;SDS011;6863;48.402;9.994;2022-12-29T14:57:48;4.47;;;2.97;;
13584;SDS011;6863;48.402;9.994;2022-12-29T15:00:25;3.63;;;2.77;;
13584;SDS011;6863;48.402;9.994;2022-12-29T15:03:05;3.03;;;2.47;;
13584;SDS011;6863;48.402;9.994;2022-12-29T15:05:37;5.53;;;3.63;;
13584;SDS011;6863;48.402;9.994;2022-12-29T15:08:09;2.87;;;2.63;;
13584;SDS011;6863;48.402;9.994;2022-12-29T15:10:38;4.87;;;3.07;;
13584;SDS011;6863;48.402;9.994;2022-12-29T15:13:43;3.97;;;2.93;;
13584;SDS011;6863;48.402;9.994;2022-12-29T15:16:03;4.70;;;3.50;;
13584;SDS011;6863;48.402;9.994;2022-12-29T15:18:30;4.87;;;3.13;;
13584;SDS011;6863;48.402;9.994;2022-12-29T15:21:01;3.43;;;2.80;;
13584;SDS011;6863;48.402;9.994;2022-12-29T15:23:31;3.27;;;2.90;;
13584;SDS011;6863;48.402;9.994;2022-12-29T15:26:00;4.43;;;3.73;;
13584;SDS011;6863;48.402;9.994;2022-12-29T15:28:36;4.27;;;2.90;;
13584;SDS011;6863;48.402;9.994;2022-12-29T15:31:05;5.63;;;3.13;;
13584;SDS011;6863;48.402;9.994;2022-12-29T15:33:38;3.50;;;2.90;;
13584;SDS011;6863;48.402;9.994;2022-12-29T15:36:10;4.77;;;3.63;;
13584;SDS011;6863;48.402;9.994;2022-12-29T15:38:37;3.53;;;3.20;;
13584;SDS011;6863;48.402;9.994;2022-12-29T15:41:05;3.63;;;2.80;;
13584;SDS011;6863;48.402;9.994;2022-12-29T15:43:42;3.33;;;3.03;;
13584;SDS011;6863;48.402;9.994;2022-12-29T15:46:20;3.80;;;3.50;;
13584;SDS011;6863;48.402;9.994;2022-12-29T15:48:46;3.93;;;3.03;;
13584;SDS011;6863;48.402;9.994;2022-12-29T15:51:16;3.73;;;2.93;;
13584;SDS011;6863;48.402;9.994;2022-12-29T15:53:50;3.93;;;3.20;;
13584;SDS011;6863;48.402;9.994;2022-12-29T15:56:17;3.57;;;3.10;;
13584;SDS011;6863;48.402;9.994;2022-12-29T15:58:46;3.97;;;3.67;;
13584;SDS011;6863;48.402;9.994;2022-12-29T16:04:00;3.73;;;3.27;;
13584;SDS011;6863;48.402;9.994;2022-12-29T16:06:38;6.23;;;4.73;;
13584;SDS011;6863;48.402;9.994;2022-12-29T16:09:15;3.67;;;3.37;;
13584;SDS011;6863;48.402;9.994;2022-12-29T16:11:43;5.47;;;3.50;;
13584;SDS011;6863;48.402;9.994;2022-12-29T16:14:17;4.73;;;3.37;;
13584;SDS011;6863;48.402;9.994;2022-12-29T16:16:46;4.13;;;3.73;;
13584;SDS011;6863;48.402;9.994;2022-12-29T16:19:27;4.07;;;3.50;;
13584;SDS011;6863;48.402;9.994;2022-12-29T16:22:09;4.80;;;3.27;;
13584;SDS011;6863;48.402;9.994;2022-12-29T16:24:46;3.63;;;3.33;;
13584;SDS011;6863;48.402;9.994;2022-12-29T16:27:19;3.57;;;3.27;;
13584;SDS011;6863;48.402;9.994;2022-12-29T16:29:53;4.67;;;3.33;;
13584;SDS011;6863;48.402;9.994;2022-12-29T16:35:07;3.70;;;3.20;;
13584;SDS011;6863;48.402;9.994;2022-12-29T16:37:42;4.17;;;3.43;;
13584;SDS011;6863;48.402;9.994;2022-12-29T16:42:53;4.40;;;3.03;;
13584;SDS011;6863;48.402;9.994;2022-12-29T16:50:25;4.90;;;3.47;;
13584;SDS011;6863;48.402;9.994;2022-12-29T16:52:52;4.33;;;3.83;;
13584;SDS011;6863;48.402;9.994;2022-12-29T16:55:18;4.43;;;3.90;;
13584;SDS011;6863;48.402;9.994;2022-12-29T16:57:47;6.93;;;6.23;;
13584;SDS011;6863;48.402;9.994;2022-12-29T17:00:19;7.30;;;4.77;;
13584;SDS011;6863;48.402;9.994;2022-12-29T17:02:47;5.03;;;4.00;;
13584;SDS011;6863;48.402;9.994;2022-12-29T17:05:14;6.67;;;4.37;;
13584;SDS011;6863;48.402;9.994;2022-12-29T17:07:41;5.13;;;4.27;;
13584;SDS011;6863;48.402;9.994;2022-12-29T17:10:07;4.27;;;3.10;;
13584;SDS011;6863;48.402;9.994;2022-12-29T17:12:33;5.13;;;4.40;;
13584;SDS011;6863;48.402;9.994;2022-12-29T17:15:04;7.10;;;3.73;;
13584;SDS011;6863;48.402;9.994;2022-12-29T17:17:47;5.90;;;4.07;;
13584;SDS011;6863;48.402;9.994;2022-12-29T17:22:43;4.70;;;3.80;;
13584;SDS011;6863;48.402;9.994;2022-12-29T17:25:17;5.10;;;4.30;;
13584;SDS011;6863;48.402;9.994;2022-12-29T17:27:44;6.07;;;3.83;;
13584;SDS011;6863;48.402;9.994;2022-12-29T17:30:23;4.10;;;3.70;;
13584;SDS011;6863;48.402;9.994;2022-12-29T17:32:53;5.37;;;3.90;;
13584;SDS011;6863;48.402;9.994;2022-12-29T17:35:26;6.40;;;4.30;;
13584;SDS011;6863;48.402;9.994;2022-12-29T17:37:52;5.60;;;4.33;;
13584;SDS011;6863;48.402;9.994;2022-12-29T17:40:25;8.20;;;5.97;;
13584;SDS011;6863;48.402;9.994;2022-12-29T17:42:54;5.33;;;4.80;;
13584;SDS011;6863;48.402;9.994;2022-12-29T17:45:22;5.00;;;4.50;;
13584;SDS011;6863;48.402;9.994;2022-12-29T17:47:52;5.37;;;4.87;;
13584;SDS011;6863;48.402;9.994;2022-12-29T17:50:19;6.57;;;5.60;;
13584;SDS011;6863;48.402;9.994;2022-12-29T17:52:53;4.77;;;4.37;;
13584;SDS011;6863;48.402;9.994;2022-12-29T17:55:21;7.50;;;5.20;;
13584;SDS011;6863;48.402;9.994;2022-12-29T17:57:48;7.87;;;5.63;;
13584;SDS011;6863;48.402;9.994;2022-12-29T18:00:18;6.47;;;4.93;;